createdAt,value
2016-07-01T00:00:44.054Z,-85
2016-07-01T00:01:44.041Z,-85
2016-07-01T00:02:44.081Z,-85
2016-07-01T00:03:44.147Z,-85
2016-07-01T00:04:44.105Z,-85
2016-07-01T00:05:44.046Z,-85
2016-07-01T00:06:44.024Z,-85
2016-07-01T00:07:44.162Z,-85
2016-07-01T00:08:44.120Z,-85
2016-07-01T00:09:44.114Z,-85
2016-07-01T00:10:44.111Z,-85
2016-07-01T00:11:44.053Z,-85
2016-07-01T00:12:44.325Z,-85
2016-07-01T00:13:44.108Z,-85
2016-07-01T00:14:44.079Z,-85
2016-07-01T00:15:44.153Z,-85
2016-07-01T00:16:44.098Z,-85
2016-07-01T00:17:44.150Z,-85
2016-07-01T00:18:44.101Z,-85
2016-07-01T00:19:44.131Z,-85
2016-07-01T00:20:44.132Z,-85
2016-07-01T00:21:44.183Z,-85
2016-07-01T00:22:44.133Z,-85
2016-07-01T00:23:44.134Z,-85
2016-07-01T00:24:44.179Z,-85
2016-07-01T00:25:44.097Z,-85
2016-07-01T00:26:44.131Z,-86
2016-07-01T00:27:44.141Z,-85
2016-07-01T00:28:44.658Z,-85
2016-07-01T00:29:44.342Z,-85
2016-07-01T00:30:44.108Z,-85
2016-07-01T00:31:44.098Z,-85
2016-07-01T00:32:44.142Z,-84
2016-07-01T00:33:44.114Z,-85
2016-07-01T00:34:44.134Z,-85
2016-07-01T00:35:44.153Z,-85
2016-07-01T00:36:44.129Z,-84
2016-07-01T00:37:44.207Z,-85
2016-07-01T00:38:44.202Z,-85
2016-07-01T00:39:44.175Z,-85
2016-07-01T00:40:44.205Z,-85
2016-07-01T00:41:44.163Z,-84
2016-07-01T00:42:44.183Z,-85
2016-07-01T00:43:44.201Z,-85
2016-07-01T00:44:45.088Z,-84
2016-07-01T00:45:44.155Z,-85
2016-07-01T00:46:44.139Z,-84
2016-07-01T00:47:44.183Z,-84
2016-07-01T00:48:44.137Z,-84
2016-07-01T00:49:44.179Z,-85
2016-07-01T00:50:44.215Z,-85
2016-07-01T00:51:44.123Z,-85
2016-07-01T00:52:44.204Z,-85
2016-07-01T00:53:44.210Z,-85
2016-07-01T00:54:44.159Z,-85
2016-07-01T00:55:44.185Z,-84
2016-07-01T00:56:44.203Z,-85
2016-07-01T00:57:44.201Z,-84
2016-07-01T00:58:44.236Z,-84
2016-07-01T00:59:44.214Z,-85
2016-07-01T01:00:44.306Z,-85
2016-07-01T01:01:44.175Z,-84
2016-07-01T01:02:44.206Z,-84
2016-07-01T01:03:44.270Z,-85
2016-07-01T01:04:44.192Z,-84
2016-07-01T01:05:44.221Z,-84
2016-07-01T01:06:44.158Z,-84
2016-07-01T01:07:44.245Z,-84
2016-07-01T01:08:44.268Z,-84
2016-07-01T01:09:44.282Z,-84
2016-07-01T01:10:44.239Z,-84
2016-07-01T01:11:44.288Z,-84
2016-07-01T01:12:44.224Z,-84
2016-07-01T01:13:44.235Z,-84
2016-07-01T01:14:44.282Z,-84
2016-07-01T01:15:44.247Z,-84
2016-07-01T01:16:44.314Z,-85
2016-07-01T01:17:44.250Z,-84
2016-07-01T01:18:44.218Z,-85
2016-07-01T01:19:44.253Z,-84
2016-07-01T01:20:44.251Z,-84
2016-07-01T01:21:44.223Z,-84
2016-07-01T01:22:44.192Z,-84
2016-07-01T01:23:44.320Z,-84
2016-07-01T01:24:44.250Z,-84
2016-07-01T01:25:44.228Z,-84
2016-07-01T01:26:44.238Z,-84
2016-07-01T01:27:44.222Z,-84
2016-07-01T01:28:44.283Z,-84
2016-07-01T01:29:44.255Z,-84
2016-07-01T01:30:44.217Z,-84
2016-07-01T01:31:44.279Z,-84
2016-07-01T01:32:44.900Z,-84
2016-07-01T01:33:44.291Z,-84
2016-07-01T01:34:44.318Z,-84
2016-07-01T01:35:44.327Z,-84
2016-07-01T01:36:44.305Z,-84
2016-07-01T01:37:44.294Z,-84
2016-07-01T01:38:44.258Z,-84
2016-07-01T01:39:44.265Z,-84
2016-07-01T01:40:44.310Z,-84
2016-07-01T01:41:44.305Z,-84
2016-07-01T01:42:44.319Z,-84
2016-07-01T01:43:44.266Z,-84
2016-07-01T01:44:44.314Z,-84
2016-07-01T01:45:44.262Z,-84
2016-07-01T01:46:44.271Z,-84
2016-07-01T01:47:44.331Z,-84
2016-07-01T01:48:44.354Z,-84
2016-07-01T01:49:44.419Z,-84
2016-07-01T01:50:44.334Z,-84
2016-07-01T01:51:44.278Z,-84
2016-07-01T01:52:44.331Z,-84
2016-07-01T01:53:44.351Z,-84
2016-07-01T01:54:44.313Z,-84
2016-07-01T01:55:44.298Z,-84
2016-07-01T01:56:44.374Z,-84
2016-07-01T01:57:44.325Z,-84
2016-07-01T01:58:44.320Z,-84
2016-07-01T01:59:44.360Z,-84
2016-07-01T02:00:44.373Z,-84
2016-07-01T02:01:44.436Z,-84
2016-07-01T02:02:44.327Z,-84
2016-07-01T02:03:44.286Z,-84
2016-07-01T02:04:44.347Z,-84
2016-07-01T02:05:44.410Z,-84
2016-07-01T02:06:44.327Z,-84
2016-07-01T02:07:44.359Z,-84
2016-07-01T02:08:44.374Z,-84
2016-07-01T02:09:44.419Z,-84
2016-07-01T02:10:44.345Z,-84
2016-07-01T02:11:44.343Z,-84
2016-07-01T02:12:44.374Z,-84
2016-07-01T02:13:44.382Z,-84
2016-07-01T02:14:44.343Z,-84
2016-07-01T02:15:44.358Z,-84
2016-07-01T02:16:44.375Z,-84
2016-07-01T02:17:44.391Z,-84
2016-07-01T02:18:44.383Z,-84
2016-07-01T02:19:44.369Z,-84
2016-07-01T02:20:44.395Z,-84
2016-07-01T02:21:44.374Z,-84
2016-07-01T02:22:44.412Z,-84
2016-07-01T02:23:44.345Z,-84
2016-07-01T02:24:44.386Z,-84
2016-07-01T02:25:44.397Z,-84
2016-07-01T02:26:44.341Z,-84
2016-07-01T02:27:44.373Z,-84
2016-07-01T02:28:44.407Z,-84
2016-07-01T02:29:44.388Z,-84
2016-07-01T02:30:44.377Z,-84
2016-07-01T02:31:44.408Z,-84
2016-07-01T02:32:44.383Z,-84
2016-07-01T02:33:44.419Z,-84
2016-07-01T02:34:44.413Z,-84
2016-07-01T02:35:44.448Z,-85
2016-07-01T02:36:44.388Z,-84
2016-07-01T02:37:44.415Z,-84
2016-07-01T02:38:44.433Z,-84
2016-07-01T02:39:44.449Z,-84
2016-07-01T02:40:44.407Z,-84
2016-07-01T02:41:44.410Z,-84
2016-07-01T02:42:44.413Z,-84
2016-07-01T02:43:44.407Z,-84
2016-07-01T02:44:44.378Z,-84
2016-07-01T02:45:44.458Z,-84
2016-07-01T02:46:44.497Z,-84
2016-07-01T02:47:44.453Z,-84
2016-07-01T02:48:44.434Z,-84
2016-07-01T02:49:44.399Z,-84
2016-07-01T02:50:44.458Z,-84
2016-07-01T02:51:44.425Z,-84
2016-07-01T02:52:44.532Z,-84
2016-07-01T02:53:44.442Z,-84
2016-07-01T02:54:44.505Z,-84
2016-07-01T02:55:44.488Z,-84
2016-07-01T02:56:44.475Z,-84
2016-07-01T02:57:44.506Z,-84
2016-07-01T02:58:44.490Z,-84
2016-07-01T02:59:44.419Z,-84
2016-07-01T03:00:44.475Z,-84
2016-07-01T03:01:44.479Z,-84
2016-07-01T03:02:44.596Z,-84
2016-07-01T03:03:44.475Z,-84
2016-07-01T03:04:44.444Z,-84
2016-07-01T03:05:44.496Z,-84
2016-07-01T03:06:44.501Z,-84
2016-07-01T03:07:44.520Z,-84
2016-07-01T03:08:44.462Z,-84
2016-07-01T03:09:44.543Z,-84
2016-07-01T03:10:44.527Z,-84
2016-07-01T03:11:44.475Z,-84
2016-07-01T03:12:44.486Z,-84
2016-07-01T03:13:44.551Z,-84
2016-07-01T03:14:44.539Z,-84
2016-07-01T03:15:44.514Z,-84
2016-07-01T03:16:44.495Z,-84
2016-07-01T03:17:44.564Z,-84
2016-07-01T03:18:44.516Z,-84
2016-07-01T03:19:44.559Z,-84
2016-07-01T03:20:44.559Z,-84
2016-07-01T03:21:44.554Z,-84
2016-07-01T03:22:44.539Z,-84
2016-07-01T03:23:44.552Z,-84
2016-07-01T03:24:44.566Z,-84
2016-07-01T03:25:44.531Z,-84
2016-07-01T03:26:44.541Z,-84
2016-07-01T03:27:44.553Z,-84
2016-07-01T03:28:44.582Z,-84
2016-07-01T03:29:44.565Z,-84
2016-07-01T03:30:44.579Z,-84
2016-07-01T03:31:44.529Z,-84
2016-07-01T03:32:44.573Z,-84
2016-07-01T03:33:44.542Z,-84
2016-07-01T03:34:44.566Z,-84
2016-07-01T03:35:44.605Z,-84
2016-07-01T03:36:44.557Z,-84
2016-07-01T03:37:44.546Z,-84
2016-07-01T03:38:44.698Z,-84
2016-07-01T03:39:44.600Z,-84
2016-07-01T03:40:44.567Z,-84
2016-07-01T03:41:44.579Z,-84
2016-07-01T03:42:44.554Z,-84
2016-07-01T03:43:44.597Z,-84
2016-07-01T03:44:44.546Z,-84
2016-07-01T03:45:44.589Z,-84
2016-07-01T03:46:44.576Z,-84
2016-07-01T03:47:44.558Z,-84
2016-07-01T03:48:44.566Z,-84
2016-07-01T03:49:44.610Z,-85
2016-07-01T03:50:44.615Z,-84
2016-07-01T03:51:44.644Z,-83
2016-07-01T03:52:44.638Z,-84
2016-07-01T03:53:44.611Z,-84
2016-07-01T03:54:44.599Z,-84
2016-07-01T03:55:44.615Z,-84
2016-07-01T03:56:44.627Z,-85
2016-07-01T03:57:44.656Z,-84
2016-07-01T03:58:44.637Z,-84
2016-07-01T03:59:44.624Z,-84
2016-07-01T04:00:44.597Z,-84
2016-07-01T04:01:44.634Z,-84
2016-07-01T04:02:44.653Z,-84
2016-07-01T04:03:44.559Z,-84
2016-07-01T04:04:44.618Z,-84
2016-07-01T04:05:44.666Z,-84
2016-07-01T04:06:44.645Z,-84
2016-07-01T04:07:44.654Z,-84
2016-07-01T04:08:44.607Z,-84
2016-07-01T04:09:44.614Z,-84
2016-07-01T04:10:44.593Z,-84
2016-07-01T04:11:44.633Z,-84
2016-07-01T04:12:44.708Z,-84
2016-07-01T04:13:44.619Z,-84
2016-07-01T04:14:44.624Z,-84
2016-07-01T04:15:44.597Z,-84
2016-07-01T04:16:44.657Z,-84
2016-07-01T04:17:44.620Z,-84
2016-07-01T04:18:44.699Z,-84
2016-07-01T04:19:44.720Z,-84
2016-07-01T04:20:44.635Z,-84
2016-07-01T04:21:44.676Z,-84
2016-07-01T04:22:44.649Z,-84
2016-07-01T04:23:44.695Z,-84
2016-07-01T04:24:44.667Z,-84
2016-07-01T04:25:44.681Z,-84
2016-07-01T04:26:44.718Z,-84
2016-07-01T04:27:44.629Z,-84
2016-07-01T04:28:44.651Z,-84
2016-07-01T04:29:44.648Z,-84
2016-07-01T04:30:44.630Z,-84
2016-07-01T04:31:44.663Z,-84
2016-07-01T04:32:44.689Z,-84
2016-07-01T04:33:44.713Z,-84
2016-07-01T04:34:44.637Z,-84
2016-07-01T04:35:44.750Z,-84
2016-07-01T04:36:44.672Z,-84
2016-07-01T04:37:44.659Z,-84
2016-07-01T04:38:44.645Z,-84
2016-07-01T04:39:44.798Z,-84
2016-07-01T04:40:44.672Z,-84
2016-07-01T04:41:44.678Z,-84
2016-07-01T04:42:44.674Z,-84
2016-07-01T04:43:44.663Z,-84
2016-07-01T04:44:44.679Z,-84
2016-07-01T04:45:44.699Z,-84
2016-07-01T04:46:44.726Z,-84
2016-07-01T04:47:44.733Z,-84
2016-07-01T04:48:44.775Z,-89
2016-07-01T04:49:44.733Z,-88
2016-07-01T04:50:44.663Z,-89
2016-07-01T04:51:44.742Z,-89
2016-07-01T04:52:44.777Z,-89
2016-07-01T04:53:44.813Z,-88
2016-07-01T04:54:44.815Z,-89
2016-07-01T04:55:44.721Z,-89
2016-07-01T04:56:44.731Z,-89
2016-07-01T04:57:44.793Z,-89
2016-07-01T04:58:44.710Z,-88
2016-07-01T04:59:44.771Z,-88
2016-07-01T05:00:44.737Z,-88
2016-07-01T05:01:44.753Z,-89
2016-07-01T05:02:44.780Z,-88
2016-07-01T05:03:44.718Z,-89
2016-07-01T05:04:44.765Z,-89
2016-07-01T05:05:44.770Z,-89
2016-07-01T05:06:44.791Z,-88
2016-07-01T05:07:44.786Z,-88
2016-07-01T05:08:44.822Z,-88
2016-07-01T05:09:44.803Z,-88
2016-07-01T05:10:44.807Z,-88
2016-07-01T05:11:44.804Z,-88
2016-07-01T05:12:44.724Z,-88
2016-07-01T05:13:44.836Z,-87
2016-07-01T05:14:44.778Z,-88
2016-07-01T05:15:44.768Z,-88
2016-07-01T05:16:44.793Z,-88
2016-07-01T05:17:44.762Z,-87
2016-07-01T05:18:44.796Z,-88
2016-07-01T05:19:44.749Z,-87
2016-07-01T05:20:44.733Z,-88
2016-07-01T05:21:44.782Z,-87
2016-07-01T05:22:44.783Z,-88
2016-07-01T05:23:44.788Z,-88
2016-07-01T05:24:44.805Z,-87
2016-07-01T05:25:44.852Z,-87
2016-07-01T05:26:44.791Z,-87
2016-07-01T05:27:44.840Z,-87
2016-07-01T05:28:44.841Z,-87
2016-07-01T05:29:44.852Z,-88
2016-07-01T05:30:44.821Z,-87
2016-07-01T05:31:44.907Z,-87
2016-07-01T05:32:44.770Z,-87
2016-07-01T05:33:44.796Z,-88
2016-07-01T05:34:44.857Z,-87
2016-07-01T05:35:45.029Z,-87
2016-07-01T05:36:44.933Z,-86
2016-07-01T05:37:44.805Z,-87
2016-07-01T05:38:44.862Z,-87
2016-07-01T05:39:44.825Z,-87
2016-07-01T05:40:44.872Z,-87
2016-07-01T05:41:44.854Z,-87
2016-07-01T05:42:44.871Z,-87
2016-07-01T05:43:44.878Z,-86
2016-07-01T05:44:44.836Z,-87
2016-07-01T05:45:44.901Z,-87
2016-07-01T05:46:44.915Z,-86
2016-07-01T05:47:44.851Z,-87
2016-07-01T05:48:44.930Z,-87
2016-07-01T05:49:44.948Z,-87
2016-07-01T05:50:44.978Z,-87
2016-07-01T05:51:44.891Z,-87
2016-07-01T05:52:44.924Z,-86
2016-07-01T05:53:44.867Z,-87
2016-07-01T05:54:44.890Z,-86
2016-07-01T05:55:44.870Z,-86
2016-07-01T05:56:44.856Z,-86
2016-07-01T05:57:44.855Z,-87
2016-07-01T05:58:44.909Z,-86
2016-07-01T05:59:44.909Z,-86
2016-07-01T06:00:44.852Z,-86
2016-07-01T06:01:44.900Z,-87
2016-07-01T06:02:44.923Z,-86
2016-07-01T06:03:44.878Z,-87
2016-07-01T06:04:44.922Z,-86
2016-07-01T06:05:44.894Z,-86
2016-07-01T06:06:44.877Z,-86
2016-07-01T06:07:44.927Z,-86
2016-07-01T06:08:44.879Z,-86
2016-07-01T06:09:44.925Z,-86
2016-07-01T06:10:44.937Z,-86
2016-07-01T06:11:44.898Z,-86
2016-07-01T06:12:44.950Z,-87
2016-07-01T06:13:44.982Z,-87
2016-07-01T06:14:45.016Z,-86
2016-07-01T06:15:44.937Z,-86
2016-07-01T06:16:44.990Z,-86
2016-07-01T06:17:44.944Z,-86
2016-07-01T06:18:44.879Z,-87
2016-07-01T06:19:44.906Z,-87
2016-07-01T06:20:44.921Z,-86
2016-07-01T06:21:44.961Z,-86
2016-07-01T06:22:44.955Z,-87
2016-07-01T06:23:44.954Z,-87
2016-07-01T06:24:44.989Z,-87
2016-07-01T06:25:44.986Z,-87
2016-07-01T06:26:44.981Z,-87
2016-07-01T06:27:44.975Z,-87
2016-07-01T06:28:44.966Z,-87
2016-07-01T06:29:44.939Z,-87
2016-07-01T06:30:45.021Z,-87
2016-07-01T06:31:45.069Z,-87
2016-07-01T06:32:44.991Z,-88
2016-07-01T06:33:44.993Z,-88
2016-07-01T06:34:44.983Z,-87
2016-07-01T06:35:45.767Z,-88
2016-07-01T06:36:45.011Z,-88
2016-07-01T06:37:45.036Z,-88
2016-07-01T06:38:45.012Z,-88
2016-07-01T06:39:44.986Z,-92
2016-07-01T06:40:45.014Z,-92
2016-07-01T06:41:45.010Z,-93
2016-07-01T06:42:45.014Z,-93
2016-07-01T06:43:45.231Z,-92
2016-07-01T06:44:45.020Z,-92
2016-07-01T06:45:45.007Z,-92
2016-07-01T06:46:45.070Z,-93
2016-07-01T06:47:45.055Z,-94
2016-07-01T06:48:45.021Z,-93
2016-07-01T06:49:44.997Z,-95
2016-07-01T06:50:44.987Z,-95
2016-07-01T06:51:45.100Z,-93
2016-07-01T06:52:45.863Z,-95
2016-07-01T06:53:45.373Z,-93
2016-07-01T06:54:45.211Z,-94
2016-07-01T06:55:44.982Z,-95
2016-07-01T06:56:45.093Z,-96
2016-07-01T06:57:45.234Z,-94
2016-07-01T06:58:45.155Z,-94
2016-07-01T06:59:45.100Z,-93
2016-07-01T07:00:45.229Z,-94
2016-07-01T07:01:45.109Z,-94
2016-07-01T07:02:45.179Z,-92
2016-07-01T07:03:45.081Z,-93
2016-07-01T07:04:48.269Z,-96
2016-07-01T07:05:45.482Z,-96
2016-07-01T07:06:46.128Z,-96
2016-07-01T07:07:45.259Z,-95
2016-07-01T07:08:45.254Z,-96
2016-07-01T07:09:45.294Z,-96
2016-07-01T07:10:45.381Z,-96
2016-07-01T07:11:45.243Z,-96
2016-07-01T07:12:48.402Z,-96
2016-07-01T07:13:46.102Z,-96
2016-07-01T07:25:35.034Z,-96
2016-07-01T07:26:21.815Z,-94
2016-07-01T07:27:21.613Z,-95
2016-07-01T07:28:21.385Z,-93
2016-07-01T07:29:21.066Z,-96
2016-07-01T07:30:19.889Z,-93
2016-07-01T07:31:27.341Z,-93
2016-07-01T07:32:21.270Z,-92
2016-07-01T07:33:19.860Z,-93
2016-07-01T07:34:19.929Z,-93
2016-07-01T07:35:19.940Z,-92
2016-07-01T07:36:19.892Z,-92
2016-07-01T07:37:19.871Z,-91
2016-07-01T07:38:20.087Z,-92
2016-07-01T07:39:19.912Z,-92
2016-07-01T07:40:19.838Z,-92
2016-07-01T07:41:19.988Z,-92
2016-07-01T07:42:19.996Z,-93
2016-07-01T07:43:19.904Z,-91
2016-07-01T07:44:19.931Z,-91
2016-07-01T07:45:19.895Z,-91
2016-07-01T07:46:20.194Z,-91
2016-07-01T07:47:19.916Z,-91
2016-07-01T07:48:20.069Z,-91
2016-07-01T07:49:19.950Z,-91
2016-07-01T07:50:19.972Z,-91
2016-07-01T07:51:20.022Z,-87
2016-07-01T07:52:19.916Z,-90
2016-07-01T07:53:19.893Z,-90
2016-07-01T07:54:19.868Z,-90
2016-07-01T07:55:19.995Z,-90
2016-07-01T07:56:19.920Z,-93
2016-07-01T07:57:19.982Z,-94
2016-07-01T07:58:19.923Z,-91
2016-07-01T07:59:19.932Z,-90
2016-07-01T08:00:19.951Z,-91
2016-07-01T08:01:19.998Z,-90
2016-07-01T08:02:19.937Z,-92
2016-07-01T08:03:19.964Z,-90
2016-07-01T08:04:19.971Z,-90
2016-07-01T08:05:20.015Z,-91
2016-07-01T08:06:20.005Z,-89
2016-07-01T08:07:20.019Z,-91
2016-07-01T08:08:20.039Z,-91
2016-07-01T08:09:19.967Z,-90
2016-07-01T08:10:20.082Z,-91
2016-07-01T08:11:20.068Z,-90
2016-07-01T08:12:19.976Z,-92
2016-07-01T08:13:20.019Z,-91
2016-07-01T08:14:20.048Z,-92
2016-07-01T08:15:19.994Z,-83
2016-07-01T08:16:19.951Z,-84
2016-07-01T08:17:20.019Z,-84
2016-07-01T08:18:20.744Z,-85
2016-07-01T08:19:20.099Z,-84
2016-07-01T08:20:20.037Z,-84
2016-07-01T08:21:19.988Z,-85
2016-07-01T08:22:20.023Z,-85
2016-07-01T08:23:20.003Z,-85
2016-07-01T08:24:19.955Z,-85
2016-07-01T08:25:20.073Z,-85
2016-07-01T08:26:20.190Z,-84
2016-07-01T08:27:20.073Z,-85
2016-07-01T08:28:20.014Z,-85
2016-07-01T08:29:20.010Z,-86
2016-07-01T08:30:20.097Z,-85
2016-07-01T08:31:20.046Z,-85
2016-07-01T08:32:20.094Z,-86
2016-07-01T08:33:20.106Z,-85
2016-07-01T08:34:20.085Z,-86
2016-07-01T08:35:20.034Z,-84
2016-07-01T08:36:20.050Z,-84
2016-07-01T08:37:20.027Z,-84
2016-07-01T08:38:20.029Z,-85
2016-07-01T08:39:20.074Z,-85
2016-07-01T08:40:20.110Z,-85
2016-07-01T08:41:20.228Z,-83
2016-07-01T08:42:20.121Z,-85
2016-07-01T08:43:20.339Z,-84
2016-07-01T08:44:20.159Z,-83
2016-07-01T08:45:20.005Z,-84
2016-07-01T08:46:20.153Z,-84
2016-07-01T08:47:20.109Z,-83
2016-07-01T08:48:20.093Z,-84
2016-07-01T08:49:20.054Z,-83
2016-07-01T08:50:20.267Z,-82
2016-07-01T08:51:20.078Z,-83
2016-07-01T08:52:20.145Z,-84
2016-07-01T08:53:20.185Z,-84
2016-07-01T08:54:20.035Z,-84
2016-07-01T08:55:20.090Z,-86
2016-07-01T08:56:20.057Z,-83
2016-07-01T08:57:20.120Z,-83
2016-07-01T08:58:20.034Z,-83
2016-07-01T08:59:20.275Z,-83
2016-07-01T09:00:20.213Z,-83
2016-07-01T09:01:20.187Z,-85
2016-07-01T09:02:20.089Z,-86
2016-07-01T09:03:20.058Z,-83
2016-07-01T09:04:20.099Z,-84
2016-07-01T09:05:20.130Z,-85
2016-07-01T09:06:20.361Z,-84
2016-07-01T09:07:20.017Z,-85
2016-07-01T09:08:20.155Z,-85
2016-07-01T09:09:20.192Z,-84
2016-07-01T09:10:20.136Z,-86
2016-07-01T09:11:20.278Z,-84
2016-07-01T09:12:20.159Z,-85
2016-07-01T09:13:20.192Z,-85
2016-07-01T09:14:20.147Z,-84
2016-07-01T09:15:20.872Z,-85
2016-07-01T09:16:20.206Z,-84
2016-07-01T09:17:20.139Z,-85
2016-07-01T09:18:20.126Z,-84
2016-07-01T09:19:21.183Z,-85
2016-07-01T09:20:20.125Z,-84
2016-07-01T09:21:20.134Z,-86
2016-07-01T09:22:20.123Z,-86
2016-07-01T09:23:20.218Z,-87
2016-07-01T09:24:20.219Z,-86
2016-07-01T09:25:20.158Z,-87
2016-07-01T09:26:20.120Z,-87
2016-07-01T09:27:20.155Z,-86
2016-07-01T09:28:20.128Z,-86
2016-07-01T09:29:20.782Z,-86
2016-07-01T09:30:20.270Z,-86
2016-07-01T09:31:20.300Z,-87
2016-07-01T09:32:20.247Z,-85
2016-07-01T09:33:20.464Z,-84
2016-07-01T09:34:20.157Z,-85
2016-07-01T09:35:20.184Z,-85
2016-07-01T09:36:20.189Z,-85
2016-07-01T09:37:20.194Z,-85
2016-07-01T09:38:20.282Z,-84
2016-07-01T09:39:20.511Z,-85
2016-07-01T09:40:20.191Z,-85
2016-07-01T09:41:20.223Z,-83
2016-07-01T09:42:20.174Z,-84
2016-07-01T09:43:20.258Z,-84
2016-07-01T09:44:20.266Z,-83
2016-07-01T09:45:20.290Z,-84
2016-07-01T09:46:20.146Z,-84
2016-07-01T09:47:20.264Z,-84
2016-07-01T09:48:20.270Z,-84
2016-07-01T09:49:20.218Z,-84
2016-07-01T09:50:20.283Z,-85
2016-07-01T09:51:20.251Z,-83
2016-07-01T09:52:20.279Z,-84
2016-07-01T09:53:20.338Z,-84
2016-07-01T09:54:20.268Z,-84
2016-07-01T09:55:21.293Z,-84
2016-07-01T09:56:20.759Z,-84
2016-07-01T09:57:20.269Z,-84
2016-07-01T09:58:20.228Z,-84
2016-07-01T09:59:20.415Z,-84
2016-07-01T10:00:20.282Z,-85
2016-07-01T10:01:20.335Z,-83
2016-07-01T10:02:20.322Z,-86
2016-07-01T10:03:20.267Z,-84
2016-07-01T10:04:20.245Z,-85
2016-07-01T10:05:20.333Z,-85
2016-07-01T10:06:20.278Z,-85
2016-07-01T10:07:20.182Z,-85
2016-07-01T10:08:20.311Z,-86
2016-07-01T10:09:20.303Z,-85
2016-07-01T10:10:20.219Z,-85
2016-07-01T10:11:20.283Z,-87
2016-07-01T10:12:20.238Z,-87
2016-07-01T10:13:20.243Z,-87
2016-07-01T10:14:20.231Z,-85
2016-07-01T10:15:20.951Z,-87
2016-07-01T10:16:20.865Z,-86
2016-07-01T10:17:20.278Z,-87
2016-07-01T10:18:20.280Z,-86
2016-07-01T10:19:20.313Z,-87
2016-07-01T10:20:20.421Z,-86
2016-07-01T10:21:20.214Z,-87
2016-07-01T10:22:20.339Z,-87
2016-07-01T10:23:20.373Z,-87
2016-07-01T10:24:20.317Z,-88
2016-07-01T10:25:20.294Z,-88
2016-07-01T10:26:20.226Z,-88
2016-07-01T10:27:20.361Z,-88
2016-07-01T10:28:20.356Z,-88
2016-07-01T10:29:20.276Z,-87
2016-07-01T10:30:21.078Z,-88
2016-07-01T10:31:21.254Z,-87
2016-07-01T10:32:20.274Z,-87
2016-07-01T10:33:20.397Z,-87
2016-07-01T10:34:20.323Z,-86
2016-07-01T10:35:20.602Z,-86
2016-07-01T10:36:20.778Z,-87
2016-07-01T10:37:20.493Z,-87
2016-07-01T10:38:20.503Z,-87
2016-07-01T10:39:20.558Z,-85
2016-07-01T10:40:20.397Z,-87
2016-07-01T10:41:20.311Z,-87
2016-07-01T10:42:21.041Z,-88
2016-07-01T10:43:20.382Z,-88
2016-07-01T10:44:20.525Z,-88
2016-07-01T10:45:20.311Z,-89
2016-07-01T10:46:20.399Z,-89
2016-07-01T10:47:20.384Z,-89
2016-07-01T10:48:20.299Z,-90
2016-07-01T10:49:20.527Z,-89
2016-07-01T10:50:20.421Z,-88
2016-07-01T10:51:20.594Z,-88
2016-07-01T10:52:20.313Z,-88
2016-07-01T10:53:20.343Z,-88
2016-07-01T10:54:20.418Z,-88
2016-07-01T10:55:20.387Z,-87
2016-07-01T10:56:20.355Z,-88
2016-07-01T10:57:20.445Z,-86
2016-07-01T10:58:20.705Z,-86
2016-07-01T10:59:20.619Z,-86
2016-07-01T11:00:20.419Z,-85
2016-07-01T11:01:20.335Z,-85
2016-07-01T11:02:20.397Z,-86
2016-07-01T11:03:20.437Z,-86
2016-07-01T11:04:20.422Z,-86
2016-07-01T11:05:20.447Z,-86
2016-07-01T11:06:20.378Z,-86
2016-07-01T11:07:20.360Z,-86
2016-07-01T11:08:20.413Z,-86
2016-07-01T11:09:20.396Z,-85
2016-07-01T11:10:20.409Z,-85
2016-07-01T11:11:20.466Z,-85
2016-07-01T11:12:20.546Z,-85
2016-07-01T11:13:20.424Z,-85
2016-07-01T11:14:20.523Z,-85
2016-07-01T11:15:20.613Z,-85
2016-07-01T11:16:20.346Z,-86
2016-07-01T11:17:20.546Z,-85
2016-07-01T11:18:21.683Z,-85
2016-07-01T11:19:20.581Z,-84
2016-07-01T11:20:20.451Z,-84
2016-07-01T11:21:20.530Z,-85
2016-07-01T11:22:20.378Z,-85
2016-07-01T11:23:20.439Z,-85
2016-07-01T11:24:20.434Z,-85
2016-07-01T11:25:20.574Z,-85
2016-07-01T11:26:20.583Z,-83
2016-07-01T11:27:20.408Z,-81
2016-07-01T11:28:20.450Z,-83
2016-07-01T11:29:20.494Z,-83
2016-07-01T11:30:20.500Z,-85
2016-07-01T11:31:26.722Z,-85
2016-07-01T11:32:20.488Z,-85
2016-07-01T11:33:25.589Z,-85
2016-07-01T11:34:20.487Z,-85
2016-07-01T11:35:20.554Z,-84
2016-07-01T11:36:20.478Z,-84
2016-07-01T11:37:20.575Z,-84
2016-07-01T11:38:21.162Z,-85
2016-07-01T11:39:20.458Z,-84
2016-07-01T11:40:20.610Z,-84
2016-07-01T11:41:20.478Z,-83
2016-07-01T11:42:21.346Z,-85
2016-07-01T11:43:20.594Z,-83
2016-07-01T11:44:20.558Z,-84
2016-07-01T11:45:20.449Z,-84
2016-07-01T11:46:20.577Z,-85
2016-07-01T11:47:20.693Z,-83
2016-07-01T11:48:20.493Z,-84
2016-07-01T11:49:20.714Z,-84
2016-07-01T11:50:20.563Z,-83
2016-07-01T11:51:20.572Z,-84
2016-07-01T11:52:20.906Z,-84
2016-07-01T11:53:20.838Z,-83
2016-07-01T11:54:20.609Z,-84
2016-07-01T11:55:21.386Z,-82
2016-07-01T11:56:20.571Z,-83
2016-07-01T11:57:20.767Z,-83
2016-07-01T11:58:21.289Z,-83
2016-07-01T11:59:20.779Z,-84
2016-07-01T12:00:20.730Z,-84
2016-07-01T12:01:20.683Z,-83
2016-07-01T12:02:20.518Z,-84
2016-07-01T12:03:20.727Z,-82
2016-07-01T12:04:20.587Z,-83
2016-07-01T12:05:20.458Z,-83
2016-07-01T12:06:20.944Z,-83
2016-07-01T12:07:20.504Z,-83
2016-07-01T12:08:20.537Z,-83
2016-07-01T12:09:20.583Z,-83
2016-07-01T12:10:20.681Z,-83
2016-07-01T12:11:20.547Z,-83
2016-07-01T12:12:20.774Z,-84
2016-07-01T12:13:20.681Z,-83
2016-07-01T12:14:20.707Z,-82
2016-07-01T12:15:21.422Z,-84
2016-07-01T12:16:20.828Z,-83
2016-07-01T12:17:20.657Z,-84
2016-07-01T12:18:20.733Z,-83
2016-07-01T12:19:20.834Z,-83
2016-07-01T12:20:20.552Z,-83
2016-07-01T12:21:20.519Z,-83
2016-07-01T12:22:20.539Z,-83
2016-07-01T12:23:20.596Z,-83
2016-07-01T12:24:20.581Z,-83
2016-07-01T12:25:20.530Z,-84
2016-07-01T12:26:20.786Z,-83
2016-07-01T12:27:20.575Z,-84
2016-07-01T12:28:20.864Z,-83
2016-07-01T12:29:21.763Z,-84
2016-07-01T12:30:21.225Z,-84
2016-07-01T12:31:20.930Z,-84
2016-07-01T12:32:21.043Z,-83
2016-07-01T12:33:20.696Z,-83
2016-07-01T12:34:20.529Z,-83
2016-07-01T12:35:20.623Z,-84
2016-07-01T12:36:20.640Z,-85
2016-07-01T12:37:20.735Z,-83
2016-07-01T12:38:20.679Z,-83
2016-07-01T12:39:20.809Z,-83
2016-07-01T12:40:20.701Z,-83
2016-07-01T12:41:21.436Z,-82
2016-07-01T12:42:20.771Z,-82
2016-07-01T12:43:20.601Z,-83
2016-07-01T12:44:20.718Z,-83
2016-07-01T12:45:20.897Z,-84
2016-07-01T12:46:22.854Z,-83
2016-07-01T12:47:21.632Z,-83
2016-07-01T12:48:21.398Z,-83
2016-07-01T12:49:22.121Z,-83
2016-07-01T12:50:21.398Z,-83
2016-07-01T12:51:20.673Z,-84
2016-07-01T12:52:20.629Z,-83
2016-07-01T12:53:20.698Z,-84
2016-07-01T12:54:20.708Z,-84
2016-07-01T12:55:20.689Z,-84
2016-07-01T12:56:22.756Z,-84
2016-07-01T12:57:20.767Z,-83
2016-07-01T12:58:20.854Z,-84
2016-07-01T12:59:20.780Z,-84
2016-07-01T13:00:21.166Z,-83
2016-07-01T13:01:21.485Z,-84
2016-07-01T13:02:21.111Z,-82
2016-07-01T13:03:21.531Z,-84
2016-07-01T13:04:20.950Z,-86
2016-07-01T13:05:20.721Z,-84
2016-07-01T13:06:20.781Z,-84
2016-07-01T13:07:20.631Z,-84
2016-07-01T13:08:20.641Z,-84
2016-07-01T13:09:20.683Z,-84
2016-07-01T13:10:20.692Z,-84
2016-07-01T13:11:20.646Z,-84
2016-07-01T13:12:20.657Z,-84
2016-07-01T13:13:20.679Z,-84
2016-07-01T13:14:20.715Z,-84
2016-07-01T13:15:20.825Z,-83
2016-07-01T13:16:20.848Z,-84
2016-07-01T13:17:20.873Z,-86
2016-07-01T13:18:20.777Z,-87
2016-07-01T13:19:20.790Z,-86
2016-07-01T13:20:20.764Z,-84
2016-07-01T13:21:20.698Z,-84
2016-07-01T13:22:21.027Z,-84
2016-07-01T13:23:21.813Z,-84
2016-07-01T13:24:21.496Z,-85
2016-07-01T13:25:21.487Z,-85
2016-07-01T13:26:21.085Z,-85
2016-07-01T13:27:21.259Z,-85
2016-07-01T13:28:21.406Z,-85
2016-07-01T13:29:20.955Z,-86
2016-07-01T13:30:20.943Z,-86
2016-07-01T13:31:20.954Z,-86
2016-07-01T13:32:21.172Z,-87
2016-07-01T13:33:21.385Z,-87
2016-07-01T13:34:21.233Z,-87
2016-07-01T13:35:22.000Z,-86
2016-07-01T13:36:20.986Z,-87
2016-07-01T13:37:21.615Z,-88
2016-07-01T13:38:21.989Z,-87
2016-07-01T13:39:20.791Z,-88
2016-07-01T13:40:20.805Z,-87
2016-07-01T13:41:21.046Z,-87
2016-07-01T13:42:20.908Z,-87
2016-07-01T13:43:20.908Z,-89
2016-07-01T13:44:20.835Z,-87
2016-07-01T13:45:20.923Z,-86
2016-07-01T13:46:20.883Z,-86
2016-07-01T13:47:21.977Z,-87
2016-07-01T13:48:20.930Z,-89
2016-07-01T13:49:20.851Z,-88
2016-07-01T13:50:20.961Z,-89
2016-07-01T13:51:20.862Z,-89
2016-07-01T13:52:21.719Z,-89
2016-07-01T13:53:20.880Z,-88
2016-07-01T13:54:21.055Z,-88
2016-07-01T13:55:20.829Z,-89
2016-07-01T13:56:20.795Z,-89
2016-07-01T13:57:20.845Z,-90